KFOK 050453Z AUTO 33016G30KT 10SM CLR M03/M14 A2979 RMK AO2 PK WND 32031/0438 SLP089 T10281139 400721067

KFOK 050353Z 31016G22KT 10SM CLR M02/M16 A2980 RMK AO2 SLP091 T10171161

KFOK 050253Z 31013G22KT 10SM CLR M01/M16 A2979 RMK AO2 PK WND 31030/0221 SLP089 T10111156 58001

KFOK 050153Z 31014G22KT 10SM CLR M01/M15 A2981 RMK AO2 PK WND 31026/0056 SLP093 T10061150

KFOK 050053Z 31017G23KT 10SM CLR 00/M14 A2980 RMK AO2 SLP093 T00001139

KFOK 042353Z 30012KT 10SM CLR 01/M12 A2980 RMK AO2 SLP090 T00061117 10072 20006 51019

KFOK 042253Z 31015G22KT 10SM CLR 02/M11 A2978 RMK AO2 SLP086 T00171106

KFOK 042153Z 32012G23KT 10SM OVC060 03/M09 A2975 RMK AO2 PK WND 31026/2121 SLP076 T00331089